Time;durP1;ratioP1;P1;durP2;ratioP2;P2;SDS_P1;SDS_P2;PMS_P1;PMS_P2;Temp;Humidity;BMP_temperature;BMP_pressure;BME280_temperature;BME280_humidity;BME280_pressure;Samples;Min_cycle;Max_cycle;Signal;HPM_P1;HPM_P2
2021/12/03 00:01:18;;;;;;;2.88;1.00;;;3.20;99.90;;;;;;5111635;28;20044;-67
2021/12/03 00:03:46;;;;;;;3.03;0.98;;;3.20;99.90;;;;;;5110374;28;20051;-67
2021/12/03 00:06:13;;;;;;;6.40;2.00;;;3.30;99.90;;;;;;5112576;28;20043;-67
2021/12/03 00:08:38;;;;;;;2.38;0.82;;;3.20;99.90;;;;;;5109960;27;20056;-67
2021/12/03 00:11:05;;;;;;;5.53;1.80;;;3.20;99.90;;;;;;5120383;27;20055;-67
2021/12/03 00:13:33;;;;;;;5.00;1.23;;;3.30;99.90;;;;;;5110357;28;20043;-66
2021/12/03 00:16:00;;;;;;;10.00;1.40;;;3.20;99.90;;;;;;5110118;28;20157;-67
2021/12/03 00:18:26;;;;;;;3.45;1.10;;;3.20;99.90;;;;;;5121104;27;20509;-67
2021/12/03 00:20:52;;;;;;;4.72;1.48;;;3.20;99.90;;;;;;5112314;28;20058;-67
2021/12/03 00:23:20;;;;;;;9.32;1.35;;;3.20;99.90;;;;;;5106874;28;20056;-65
2021/12/03 00:25:45;;;;;;;3.35;1.40;;;3.20;99.90;;;;;;5110252;27;20047;-67
2021/12/03 00:28:11;;;;;;;4.50;1.50;;;3.20;99.90;;;;;;5133902;27;20047;-67
2021/12/03 00:30:37;;;;;;;5.88;1.00;;;3.30;99.90;;;;;;5112685;27;20043;-67
2021/12/03 00:33:05;;;;;;;7.47;1.60;;;3.20;99.90;;;;;;5130727;27;20130;-66
2021/12/03 00:35:31;;;;;;;10.40;3.50;;;3.20;99.90;;;;;;5120014;27;20059;-67
2021/12/03 00:37:57;;;;;;;3.88;1.35;;;3.30;99.90;;;;;;5112148;27;20414;-66
2021/12/03 00:40:26;;;;;;;9.82;1.20;;;3.20;99.90;;;;;;5117088;27;20478;-67
2021/12/03 00:42:52;;;;;;;4.72;1.05;;;3.20;99.90;;;;;;5131477;27;20088;-67
2021/12/03 00:45:17;;;;;;;8.30;1.67;;;3.30;99.90;;;;;;5108380;27;20031;-66
2021/12/03 00:47:43;;;;;;;2.25;1.02;;;3.20;99.90;;;;;;5114958;27;20055;-67
2021/12/03 00:50:13;;;;;;;4.97;1.17;;;3.30;99.90;;;;;;5113459;27;20050;-67
2021/12/03 00:52:39;;;;;;;4.45;0.88;;;3.20;99.90;;;;;;5122097;27;20058;-67
2021/12/03 00:55:06;;;;;;;9.73;2.45;;;3.20;99.90;;;;;;5133476;27;20043;-67
2021/12/03 00:57:31;;;;;;;7.60;1.58;;;3.30;99.90;;;;;;5111029;28;20062;-67
2021/12/03 00:59:57;;;;;;;4.38;0.85;;;3.30;99.90;;;;;;5123035;27;20035;-65
2021/12/03 01:02:23;;;;;;;7.28;1.80;;;3.30;99.90;;;;;;5113082;27;20034;-65
2021/12/03 01:04:49;;;;;;;6.03;1.00;;;3.20;99.90;;;;;;5127590;27;20043;-65
2021/12/03 01:07:15;;;;;;;3.25;0.90;;;3.20;99.90;;;;;;5112342;27;20053;-65
2021/12/03 01:09:41;;;;;;;8.57;2.17;;;3.20;99.90;;;;;;5130557;27;20043;-65
2021/12/03 01:12:08;;;;;;;5.05;1.33;;;3.20;99.90;;;;;;5113482;27;20047;-65
2021/12/03 01:14:34;;;;;;;2.80;0.90;;;3.20;99.90;;;;;;5131182;27;20054;-65
2021/12/03 01:16:59;;;;;;;2.78;0.93;;;3.20;99.90;;;;;;5111092;27;20047;-65
2021/12/03 01:19:25;;;;;;;3.75;1.50;;;3.20;99.90;;;;;;5130108;27;20035;-65
2021/12/03 01:21:51;;;;;;;4.07;0.68;;;3.20;99.90;;;;;;5130783;27;20126;-65
2021/12/03 01:24:17;;;;;;;7.60;1.65;;;3.20;99.90;;;;;;5132460;27;20047;-65
2021/12/03 01:26:45;;;;;;;9.38;1.02;;;3.20;99.90;;;;;;5111890;27;20086;-65
2021/12/03 01:29:10;;;;;;;5.82;1.08;;;3.20;99.90;;;;;;5131504;27;20355;-65
2021/12/03 01:31:36;;;;;;;6.20;0.80;;;3.20;99.90;;;;;;5133485;27;20050;-65
2021/12/03 01:34:03;;;;;;;4.45;2.13;;;3.20;99.90;;;;;;5116114;27;20047;-65
2021/12/03 01:36:28;;;;;;;6.75;1.42;;;3.20;99.90;;;;;;5130982;27;20043;-65
2021/12/03 01:38:54;;;;;;;2.65;0.90;;;3.20;99.90;;;;;;5125784;27;20046;-67
2021/12/03 01:41:20;;;;;;;3.45;0.70;;;3.30;99.90;;;;;;5123513;27;20126;-67
2021/12/03 01:43:46;;;;;;;1.92;0.73;;;3.30;99.90;;;;;;5112292;27;20132;-65
2021/12/03 01:46:13;;;;;;;6.65;1.38;;;3.30;99.90;;;;;;5129488;27;20073;-65
2021/12/03 01:48:40;;;;;;;2.28;1.00;;;3.30;99.90;;;;;;5129766;27;20407;-65
2021/12/03 01:51:06;;;;;;;10.02;1.77;;;3.40;99.90;;;;;;5107011;28;20459;-65
2021/12/03 01:53:38;;;;;;;2.58;1.00;;;3.40;99.90;;;;;;5126708;27;20074;-65
2021/12/03 01:56:09;;;;;;;7.78;1.30;;;3.40;99.90;;;;;;5119050;28;20141;-65
2021/12/03 01:58:36;;;;;;;10.07;1.33;;;3.40;99.90;;;;;;5125648;27;20123;-65
2021/12/03 02:01:06;;;;;;;6.95;1.20;;;3.40;99.90;;;;;;5115798;28;20043;-65
2021/12/03 02:03:34;;;;;;;4.82;1.50;;;3.50;99.90;;;;;;5130038;28;20505;-65
2021/12/03 02:06:02;;;;;;;8.48;1.50;;;3.50;99.90;;;;;;5108079;27;20039;-65
2021/12/03 02:08:28;;;;;;;5.25;1.55;;;3.50;99.90;;;;;;5112003;28;20048;-65
2021/12/03 02:10:54;;;;;;;4.38;0.90;;;3.50;99.90;;;;;;5125545;28;20508;-65
2021/12/03 02:13:20;;;;;;;5.68;1.40;;;3.50;99.90;;;;;;5130535;28;20061;-65
2021/12/03 02:15:46;;;;;;;7.97;1.50;;;3.50;99.90;;;;;;5118122;27;20042;-65
2021/12/03 02:18:14;;;;;;;11.55;2.15;;;3.50;99.90;;;;;;5138744;27;20047;-65
2021/12/03 02:20:46;;;;;;;9.75;1.60;;;3.60;99.90;;;;;;5122857;27;20096;-65
2021/12/03 02:23:13;;;;;;;10.23;1.42;;;3.60;99.90;;;;;;5114609;27;20047;-64
2021/12/03 02:25:39;;;;;;;6.78;1.70;;;3.60;99.90;;;;;;5142730;27;20515;-65
2021/12/03 02:28:05;;;;;;;3.50;2.10;;;3.50;99.90;;;;;;5111878;27;20051;-64
2021/12/03 02:30:31;;;;;;;6.32;1.65;;;3.50;99.90;;;;;;5100557;27;20475;-65
2021/12/03 02:32:56;;;;;;;5.38;1.30;;;3.50;99.90;;;;;;5115272;27;20051;-65
2021/12/03 02:35:23;;;;;;;5.28;0.98;;;3.50;99.90;;;;;;5130841;27;20383;-65
2021/12/03 02:37:50;;;;;;;6.47;1.10;;;3.50;99.90;;;;;;5132351;27;20550;-65
2021/12/03 02:40:16;;;;;;;5.07;1.25;;;3.50;99.90;;;;;;5131795;27;20043;-65
2021/12/03 02:42:43;;;;;;;3.38;1.67;;;3.50;99.90;;;;;;5133660;27;20127;-65
2021/12/03 02:45:10;;;;;;;7.80;1.33;;;3.50;99.90;;;;;;5134410;27;20050;-65
2021/12/03 02:47:36;;;;;;;4.22;1.00;;;3.50;99.90;;;;;;5124386;27;20394;-65
2021/12/03 02:50:03;;;;;;;8.55;1.40;;;3.40;99.90;;;;;;5138090;27;20031;-65
2021/12/03 02:52:29;;;;;;;2.10;0.80;;;3.40;99.90;;;;;;5120630;27;20529;-65
2021/12/03 02:54:54;;;;;;;7.07;1.50;;;3.40;99.90;;;;;;5123865;27;20054;-65
2021/12/03 02:57:20;;;;;;;6.47;1.38;;;3.50;99.90;;;;;;5133964;27;20437;-65
2021/12/03 02:59:46;;;;;;;6.45;1.42;;;3.50;99.90;;;;;;5124817;27;20058;-65
2021/12/03 03:02:11;;;;;;;5.57;1.98;;;3.40;99.90;;;;;;5121674;27;20043;-65
2021/12/03 03:04:37;;;;;;;4.57;1.23;;;3.40;99.90;;;;;;5100591;28;20437;-65
2021/12/03 03:07:03;;;;;;;6.90;1.20;;;3.40;99.90;;;;;;5108755;27;20045;-65
2021/12/03 03:09:31;;;;;;;3.22;1.02;;;3.40;99.90;;;;;;5138079;27;20390;-65
2021/12/03 03:11:57;;;;;;;17.15;2.65;;;3.30;99.90;;;;;;5115031;27;20055;-65
2021/12/03 03:14:22;;;;;;;3.25;1.55;;;3.40;99.90;;;;;;5114637;27;20599;-65
2021/12/03 03:16:48;;;;;;;5.15;1.38;;;3.40;99.90;;;;;;5114014;27;20483;-65
2021/12/03 03:19:16;;;;;;;4.50;1.60;;;3.40;99.90;;;;;;5139903;27;20058;-65
2021/12/03 03:21:43;;;;;;;14.23;2.17;;;3.40;99.90;;;;;;5130493;27;20047;-64
2021/12/03 03:24:09;;;;;;;4.05;1.92;;;3.50;99.90;;;;;;5115171;27;20125;-65
2021/12/03 03:26:37;;;;;;;6.70;1.58;;;3.40;99.90;;;;;;5139129;27;20051;-65
2021/12/03 03:29:08;;;;;;;9.35;1.52;;;3.50;99.90;;;;;;5132607;27;20146;-64
2021/12/03 03:31:35;;;;;;;4.75;1.58;;;3.40;99.90;;;;;;5132399;27;20126;-65
2021/12/03 03:34:01;;;;;;;6.65;1.30;;;3.50;99.90;;;;;;5143386;27;20037;-65
2021/12/03 03:36:30;;;;;;;12.88;2.20;;;3.50;99.90;;;;;;5114842;27;20055;-65
2021/12/03 03:38:56;;;;;;;13.45;1.98;;;3.50;99.90;;;;;;5119409;27;20035;-65
2021/12/03 03:41:22;;;;;;;8.57;1.83;;;3.50;99.90;;;;;;5132128;27;20411;-65
2021/12/03 03:43:48;;;;;;;9.45;2.65;;;3.50;99.90;;;;;;5134640;27;20126;-65
2021/12/03 03:46:13;;;;;;;8.15;2.08;;;3.50;99.90;;;;;;5114395;27;20135;-65
2021/12/03 03:48:39;;;;;;;10.88;2.45;;;3.50;99.90;;;;;;5125341;27;20039;-65
2021/12/03 03:51:05;;;;;;;6.00;2.67;;;3.50;99.90;;;;;;5134540;27;20551;-65
2021/12/03 03:53:30;;;;;;;6.95;1.98;;;3.50;99.90;;;;;;5105295;27;20043;-65
2021/12/03 03:55:56;;;;;;;7.57;2.25;;;3.50;99.90;;;;;;5122098;27;20042;-65
2021/12/03 03:58:22;;;;;;;5.25;2.60;;;3.50;99.90;;;;;;5131573;27;20035;-65
2021/12/03 04:00:47;;;;;;;13.85;3.42;;;3.50;99.90;;;;;;5108705;27;20048;-65
2021/12/03 04:03:13;;;;;;;7.35;2.40;;;3.50;99.90;;;;;;5132161;27;20405;-65
2021/12/03 04:05:40;;;;;;;7.35;2.00;;;3.60;99.90;;;;;;5129514;27;20054;-65
2021/12/03 04:08:06;;;;;;;6.25;2.55;;;3.60;99.90;;;;;;5130611;27;20394;-65
2021/12/03 04:10:32;;;;;;;7.38;3.28;;;3.50;99.90;;;;;;5121804;27;20047;-65
2021/12/03 04:12:58;;;;;;;14.02;3.20;;;3.50;99.90;;;;;;5119583;27;20062;-65
2021/12/03 04:15:24;;;;;;;7.63;2.67;;;3.50;99.90;;;;;;5137018;27;20039;-65
2021/12/03 04:17:50;;;;;;;8.68;2.22;;;3.50;99.90;;;;;;5114622;27;20053;-65
2021/12/03 04:20:17;;;;;;;7.63;2.65;;;3.60;99.90;;;;;;5128158;27;20046;-65
2021/12/03 04:22:44;;;;;;;5.22;2.20;;;3.60;99.90;;;;;;5114549;27;20438;-65
2021/12/03 04:25:13;;;;;;;8.20;3.15;;;3.60;99.90;;;;;;5135000;27;20084;-65
2021/12/03 04:27:40;;;;;;;8.20;2.95;;;3.60;99.90;;;;;;5118048;27;20079;-65
2021/12/03 04:30:09;;;;;;;6.40;2.03;;;3.60;99.90;;;;;;5124092;27;20043;-65
2021/12/03 04:32:35;;;;;;;6.25;2.70;;;3.60;99.90;;;;;;5118125;27;20103;-65
2021/12/03 04:35:00;;;;;;;11.40;2.42;;;3.70;99.90;;;;;;5113008;27;20514;-65
2021/12/03 04:37:26;;;;;;;10.05;2.28;;;3.70;99.90;;;;;;5136353;27;20039;-65
2021/12/03 04:39:51;;;;;;;5.50;2.45;;;3.70;99.90;;;;;;5131312;27;20396;-65
2021/12/03 04:42:17;;;;;;;9.45;2.35;;;3.70;99.90;;;;;;5113281;27;20461;-65
2021/12/03 04:44:43;;;;;;;9.27;2.42;;;3.70;99.90;;;;;;5126711;27;20398;-65
2021/12/03 04:47:09;;;;;;;12.52;2.92;;;3.70;99.90;;;;;;5144256;27;20371;-65
2021/12/03 04:49:35;;;;;;;10.50;2.65;;;3.80;99.90;;;;;;5122132;27;20069;-65
2021/12/03 04:52:00;;;;;;;10.48;2.17;;;3.80;99.90;;;;;;5136601;27;20038;-65
2021/12/03 04:54:26;;;;;;;7.90;2.45;;;3.80;99.90;;;;;;5131052;27;20039;-65
2021/12/03 04:56:56;;;;;;;6.85;1.85;;;3.80;99.90;;;;;;5121872;27;20130;-65
2021/12/03 04:59:22;;;;;;;6.05;2.25;;;3.80;99.90;;;;;;5112423;27;20046;-65
2021/12/03 05:01:49;;;;;;;9.60;2.72;;;3.80;99.90;;;;;;5131676;27;20126;-65
2021/12/03 05:04:14;;;;;;;4.80;2.17;;;3.80;99.90;;;;;;5097642;27;20062;-65
2021/12/03 05:09:38;;;;;;;11.10;3.10;;;3.70;99.90;;;;;;5100301;27;20236;-65
2021/12/03 05:12:05;;;;;;;5.78;1.85;;;3.70;99.90;;;;;;5127122;27;20047;-67
2021/12/03 05:14:30;;;;;;;8.15;2.10;;;3.80;99.90;;;;;;5131372;27;20039;-67
2021/12/03 05:16:57;;;;;;;10.98;2.47;;;3.80;99.90;;;;;;5118480;27;20134;-65
2021/12/03 05:19:23;;;;;;;7.55;1.90;;;3.80;99.90;;;;;;5118407;27;20035;-65
2021/12/03 05:21:49;;;;;;;9.15;2.40;;;3.80;99.90;;;;;;5113179;27;20155;-65
2021/12/03 05:24:16;;;;;;;8.43;1.77;;;3.80;99.90;;;;;;5096516;27;20061;-65
2021/12/03 05:26:43;;;;;;;11.40;2.55;;;3.80;99.90;;;;;;5110575;27;20059;-65
2021/12/03 05:29:10;;;;;;;8.57;1.67;;;3.80;99.90;;;;;;5139575;27;20095;-65
2021/12/03 05:31:37;;;;;;;9.40;2.10;;;3.90;99.90;;;;;;5132612;27;20046;-65
2021/12/03 05:34:05;;;;;;;13.90;2.60;;;3.90;99.90;;;;;;5144758;27;20035;-65
2021/12/03 05:36:31;;;;;;;10.48;2.33;;;3.90;99.90;;;;;;5123348;27;20154;-65
2021/12/03 05:38:57;;;;;;;7.13;2.10;;;3.90;99.90;;;;;;5134121;27;20071;-64
2021/12/03 05:41:23;;;;;;;5.93;2.05;;;4.00;99.90;;;;;;5113329;27;20156;-64
2021/12/03 05:43:49;;;;;;;14.02;1.50;;;4.00;99.90;;;;;;5138179;27;20049;-63
2021/12/03 05:46:14;;;;;;;4.93;1.63;;;4.00;99.90;;;;;;5131149;27;20401;-64
2021/12/03 05:48:40;;;;;;;10.77;1.80;;;4.00;99.90;;;;;;5103496;28;20047;-64
2021/12/03 05:51:06;;;;;;;7.93;1.95;;;4.10;99.90;;;;;;5135234;27;20043;-64
2021/12/03 05:53:33;;;;;;;9.10;1.90;;;4.10;99.90;;;;;;5119643;28;20478;-64
2021/12/03 05:55:58;;;;;;;7.88;2.53;;;4.10;99.90;;;;;;5125616;28;20063;-64
2021/12/03 05:58:24;;;;;;;4.80;1.77;;;4.10;99.90;;;;;;5108222;27;20151;-64
2021/12/03 06:00:50;;;;;;;5.70;1.70;;;4.10;99.90;;;;;;5121978;28;20042;-64
2021/12/03 06:03:16;;;;;;;7.75;2.13;;;4.10;99.90;;;;;;5119450;27;20038;-64
2021/12/03 06:05:41;;;;;;;6.43;2.13;;;4.10;99.90;;;;;;5128513;27;20062;-64
2021/12/03 06:08:08;;;;;;;7.05;1.65;;;4.10;99.90;;;;;;5128067;27;20086;-64
2021/12/03 06:10:34;;;;;;;8.80;2.67;;;4.10;99.90;;;;;;5136863;27;20047;-65
2021/12/03 06:13:00;;;;;;;8.48;1.85;;;4.10;99.90;;;;;;5122951;27;20047;-65
2021/12/03 06:15:26;;;;;;;7.55;2.17;;;4.10;99.90;;;;;;5126628;27;20108;-65
2021/12/03 06:17:52;;;;;;;10.52;2.53;;;4.10;99.90;;;;;;5127998;28;20565;-65
2021/12/03 06:20:19;;;;;;;8.40;2.15;;;4.10;99.90;;;;;;5130309;27;20063;-65
2021/12/03 06:22:45;;;;;;;11.27;3.08;;;4.10;99.90;;;;;;5130538;27;20065;-65
2021/12/03 06:25:12;;;;;;;5.95;2.47;;;4.10;99.90;;;;;;5131240;28;20144;-65
2021/12/03 06:27:39;;;;;;;9.05;2.25;;;4.10;99.90;;;;;;5131814;27;20464;-65
2021/12/03 06:30:07;;;;;;;11.68;2.45;;;4.10;99.90;;;;;;5112814;28;20455;-65
2021/12/03 06:32:33;;;;;;;10.25;2.28;;;4.10;99.90;;;;;;5111635;28;20070;-65
2021/12/03 06:34:59;;;;;;;9.25;1.95;;;4.10;99.90;;;;;;5131461;27;20051;-65
2021/12/03 06:37:25;;;;;;;6.10;2.20;;;4.10;99.90;;;;;;5112069;28;20039;-65
2021/12/03 06:39:51;;;;;;;9.88;2.50;;;4.10;99.90;;;;;;5130406;28;20088;-65
2021/12/03 06:42:16;;;;;;;10.35;2.17;;;4.10;99.90;;;;;;5129389;27;20390;-65
2021/12/03 06:44:42;;;;;;;10.10;2.42;;;4.10;99.90;;;;;;5127044;27;20454;-65
2021/12/03 06:47:08;;;;;;;7.45;2.95;;;4.10;99.90;;;;;;5117467;28;20043;-65
2021/12/03 06:49:34;;;;;;;7.53;2.83;;;4.10;99.90;;;;;;5100369;27;20055;-64
2021/12/03 06:52:07;;;;;;;15.43;4.13;;;4.10;99.90;;;;;;5129888;27;20045;-65
2021/12/03 06:54:34;;;;;;;11.77;2.97;;;4.10;99.90;;;;;;5111648;28;20043;-65
2021/12/03 06:57:02;;;;;;;6.68;3.03;;;4.10;99.90;;;;;;5128207;27;21528;-64
2021/12/03 06:59:28;;;;;;;10.10;4.38;;;4.20;99.90;;;;;;5137055;27;20047;-65
2021/12/03 07:01:53;;;;;;;11.02;5.47;;;4.10;99.90;;;;;;5111892;27;20078;-64
2021/12/03 07:04:19;;;;;;;12.45;5.97;;;4.10;99.90;;;;;;5127303;27;20371;-65
2021/12/03 07:06:46;;;;;;;16.42;4.45;;;4.10;99.90;;;;;;5135059;27;20049;-64
2021/12/03 07:09:12;;;;;;;18.65;5.78;;;4.20;99.90;;;;;;5123797;27;20505;-65
2021/12/03 07:11:37;;;;;;;11.52;5.32;;;4.20;99.90;;;;;;5145132;27;20039;-65
2021/12/03 07:14:04;;;;;;;10.45;5.53;;;4.20;99.90;;;;;;5134165;27;20054;-65
2021/12/03 07:16:30;;;;;;;12.27;5.47;;;4.20;99.90;;;;;;5112945;27;20054;-65
2021/12/03 07:18:57;;;;;;;12.30;5.55;;;4.20;99.90;;;;;;5128063;27;20410;-65
2021/12/03 07:21:23;;;;;;;19.00;6.70;;;4.20;99.90;;;;;;5152436;27;20043;-65
2021/12/03 07:23:50;;;;;;;24.13;5.93;;;4.20;99.90;;;;;;5111991;27;20053;-65
2021/12/03 07:26:17;;;;;;;14.07;5.70;;;4.20;99.90;;;;;;5137891;27;20052;-65
2021/12/03 07:28:43;;;;;;;13.07;5.18;;;4.20;99.90;;;;;;5110887;27;20448;-65
2021/12/03 07:31:09;;;;;;;9.68;4.00;;;4.30;99.90;;;;;;5138871;27;20066;-65
2021/12/03 07:33:35;;;;;;;11.18;3.25;;;4.30;99.90;;;;;;5123655;27;20066;-65
2021/12/03 07:36:01;;;;;;;7.93;3.05;;;4.40;99.90;;;;;;5133337;27;20118;-65
2021/12/03 07:38:27;;;;;;;14.68;3.80;;;4.50;99.90;;;;;;5123877;27;20081;-65
2021/12/03 07:40:52;;;;;;;8.98;3.60;;;4.50;99.90;;;;;;5149494;27;20071;-65
2021/12/03 07:43:18;;;;;;;10.52;4.38;;;4.50;99.90;;;;;;5131676;27;20044;-65
2021/12/03 07:45:49;;;;;;;7.88;2.95;;;4.50;99.90;;;;;;5130806;27;20557;-65
2021/12/03 07:48:14;;;;;;;11.07;2.95;;;4.50;99.90;;;;;;5113991;27;20046;-65
2021/12/03 07:50:41;;;;;;;14.05;3.33;;;4.50;99.90;;;;;;5119757;27;20043;-65
2021/12/03 07:53:09;;;;;;;9.07;3.28;;;4.50;99.90;;;;;;5111213;27;20051;-65
2021/12/03 07:55:34;;;;;;;7.00;2.13;;;4.50;99.90;;;;;;5108322;27;20043;-65
2021/12/03 07:58:03;;;;;;;13.65;4.07;;;4.50;99.90;;;;;;5128224;27;20542;-65
2021/12/03 08:00:29;;;;;;;11.23;2.58;;;4.50;99.90;;;;;;5104145;27;20478;-65
2021/12/03 08:02:55;;;;;;;9.73;2.33;;;4.60;99.90;;;;;;5123455;27;20039;-65
2021/12/03 08:05:21;;;;;;;12.60;3.17;;;4.60;99.90;;;;;;5122848;27;20572;-68
2021/12/03 08:07:48;;;;;;;11.57;2.85;;;4.50;99.90;;;;;;5119647;27;20031;-65
2021/12/03 08:10:15;;;;;;;6.85;2.72;;;4.60;99.90;;;;;;5105070;27;20482;-65
2021/12/03 08:12:42;;;;;;;7.97;2.42;;;4.60;99.90;;;;;;5108500;27;20071;-65
2021/12/03 08:15:09;;;;;;;5.97;2.47;;;4.60;99.90;;;;;;5120701;27;20478;-65
2021/12/03 08:17:34;;;;;;;7.50;2.10;;;4.60;99.90;;;;;;5124014;27;20086;-65
2021/12/03 08:20:00;;;;;;;8.60;2.22;;;4.70;99.90;;;;;;5124314;27;20036;-65
2021/12/03 08:22:26;;;;;;;7.15;1.88;;;4.70;99.90;;;;;;5125359;27;20035;-65
2021/12/03 08:24:51;;;;;;;6.50;2.13;;;4.70;99.90;;;;;;5127264;27;20046;-65
2021/12/03 08:27:17;;;;;;;21.23;4.00;;;4.80;99.90;;;;;;5115301;27;20047;-65
2021/12/03 08:29:43;;;;;;;11.60;2.60;;;4.80;99.90;;;;;;5113255;27;20047;-65
2021/12/03 08:32:10;;;;;;;23.50;4.53;;;4.80;99.90;;;;;;5130331;27;20038;-65
2021/12/03 08:34:36;;;;;;;9.27;2.60;;;4.80;99.90;;;;;;5132864;27;20046;-65
2021/12/03 08:37:02;;;;;;;9.13;2.28;;;4.80;99.90;;;;;;5136682;27;20481;-65
2021/12/03 08:39:30;;;;;;;14.18;2.92;;;4.90;99.90;;;;;;5146442;27;20061;-65
2021/12/03 08:41:56;;;;;;;12.63;2.53;;;4.90;99.90;;;;;;5129738;27;20039;-64
2021/12/03 08:44:22;;;;;;;11.48;3.10;;;4.90;99.90;;;;;;5120819;27;20043;-65
2021/12/03 08:46:51;;;;;;;8.52;2.53;;;4.90;99.90;;;;;;5126336;27;20122;-65
2021/12/03 08:49:29;;;;;;;11.75;2.20;;;5.00;99.90;;;;;;5138489;27;20091;-65
2021/12/03 08:52:21;;;;;;;6.28;1.65;;;5.00;99.90;;;;;;5137704;27;20145;-65
2021/12/03 08:54:53;;;;;;;9.63;2.60;;;5.00;99.90;;;;;;5140350;27;20046;-65
2021/12/03 08:57:27;;;;;;;16.08;2.42;;;5.00;99.90;;;;;;5127365;27;20724;-65
2021/12/03 09:00:01;;;;;;;9.73;1.98;;;5.00;99.90;;;;;;5130658;27;20039;-65
2021/12/03 09:02:27;;;;;;;4.70;1.65;;;5.00;99.90;;;;;;5122207;27;20492;-65
2021/12/03 09:04:54;;;;;;;9.55;2.17;;;4.90;99.90;;;;;;5126520;27;20127;-64
2021/12/03 09:07:19;;;;;;;17.45;3.15;;;5.00;99.90;;;;;;5111858;27;20042;-65
2021/12/03 09:09:45;;;;;;;16.05;2.25;;;5.00;99.90;;;;;;5132431;27;20065;-64
2021/12/03 09:12:11;;;;;;;11.98;2.25;;;5.00;99.90;;;;;;5125716;27;20075;-65
2021/12/03 09:14:52;;;;;;;7.95;2.40;;;5.00;99.90;;;;;;5117639;27;20035;-65
2021/12/03 09:17:43;;;;;;;10.05;2.13;;;5.10;99.90;;;;;;5120799;27;20440;-65
2021/12/03 09:22:41;;;;;;;8.57;2.25;;;5.10;99.90;;;;;;5113327;27;20865;-65
2021/12/03 09:25:10;;;;;;;10.25;3.20;;;5.10;99.90;;;;;;5142361;27;20042;-66
2021/12/03 09:27:36;;;;;;;8.18;2.28;;;5.10;99.90;;;;;;5127986;27;20049;-66
2021/12/03 09:30:05;;;;;;;11.50;2.45;;;5.20;99.90;;;;;;5138449;27;20043;-66
2021/12/03 09:32:32;;;;;;;11.05;2.40;;;5.20;99.90;;;;;;5129640;27;20105;-66
2021/12/03 09:34:59;;;;;;;8.10;2.17;;;5.20;99.90;;;;;;5114554;27;20051;-66
2021/12/03 09:37:25;;;;;;;10.90;2.53;;;5.20;99.90;;;;;;5122204;27;20046;-66
2021/12/03 09:39:51;;;;;;;15.05;3.47;;;5.20;99.90;;;;;;5115338;27;20493;-66
2021/12/03 09:42:18;;;;;;;13.75;2.53;;;5.30;99.90;;;;;;5110936;27;20079;-66
2021/12/03 09:44:45;;;;;;;7.85;2.40;;;5.30;99.90;;;;;;5111000;27;20061;-66
2021/12/03 09:47:13;;;;;;;11.68;3.10;;;5.30;99.90;;;;;;5126046;27;20042;-66
2021/12/03 09:49:40;;;;;;;11.60;3.03;;;5.30;99.90;;;;;;5130555;27;20059;-66
2021/12/03 09:55:09;;;;;;;5.35;2.40;;;5.30;99.90;;;;;;5123842;27;20389;-66
2021/12/03 09:57:43;;;;;;;10.40;3.53;;;5.40;99.90;;;;;;5122052;27;20047;-66
2021/12/03 10:00:20;;;;;;;10.43;2.60;;;5.40;99.90;;;;;;5122529;27;20055;-66
2021/12/03 10:03:38;;;;;;;12.98;3.05;;;5.50;99.90;;;;;;5149745;27;20039;-66
2021/12/03 10:11:52;;;;;;;;;;;5.50;99.90;;;;;;5106952;27;20043;-67
2021/12/03 10:20:11;;;;;;;9.95;3.10;;;5.40;99.90;;;;;;5121672;27;20055;-67
2021/12/03 10:38:42;;;;;;;25.55;5.20;;;5.10;99.90;;;;;;5119018;27;20483;-66
2021/12/03 10:41:27;;;;;;;17.50;4.32;;;5.10;99.90;;;;;;5108636;27;20048;-65
2021/12/03 10:44:12;;;;;;;15.80;5.38;;;5.00;99.90;;;;;;5115303;27;20043;-65
2021/12/03 10:49:45;;;;;;;15.73;4.60;;;4.90;99.90;;;;;;5131099;27;20134;-65
2021/12/03 11:10:58;;;;;;;22.20;5.55;;;4.70;99.90;;;;;;5110755;28;20181;-65
2021/12/03 11:17:24;;;;;;;15.00;3.90;;;4.70;99.90;;;;;;5112259;27;20046;-65
2021/12/03 11:26:41;;;;;;;10.18;4.38;;;4.70;99.90;;;;;;5124354;27;20105;-65
2021/12/03 11:28:53;;;;;;;12.25;4.97;;;4.70;99.90;;;;;;5126566;27;20741;-65
2021/12/03 11:55:05;;;;;;;10.30;4.28;;;4.60;99.90;;;;;;5135717;27;20489;-65
2021/12/03 12:24:41;;;;;;;10.45;4.55;;;4.90;99.90;;;;;;5130491;27;20493;-65
2021/12/03 12:33:08;;;;;;;15.10;4.70;;;4.90;99.90;;;;;;5121039;27;20219;-66
2021/12/03 12:39:31;;;;;;;16.98;5.90;;;4.80;99.90;;;;;;5114220;27;20043;-66
2021/12/03 13:24:44;;;;;;;14.40;5.30;;;4.80;99.90;;;;;;5131900;27;20043;-65
2021/12/03 13:27:56;;;;;;;12.60;6.03;;;4.80;99.90;;;;;;5111172;27;20047;-65
2021/12/03 13:57:50;;;;;;;24.85;8.40;;;4.80;99.90;;;;;;5131977;27;20047;-65
2021/12/03 14:00:14;;;;;;;15.27;7.13;;;4.70;99.90;;;;;;5132186;28;20575;-65
2021/12/03 14:07:02;;;;;;;15.98;7.22;;;4.80;99.90;;;;;;5129744;27;20054;-65
2021/12/03 14:35:48;;;;;;;14.27;10.20;;;4.80;99.90;;;;;;5136307;27;20058;-65
2021/12/03 14:48:53;;;;;;;14.63;8.57;;;4.80;99.90;;;;;;5115308;27;20071;-65
2021/12/03 14:51:39;;;;;;;15.90;9.63;;;4.80;99.90;;;;;;5117727;27;20516;-65
2021/12/03 14:54:24;;;;;;;18.38;10.68;;;4.80;99.90;;;;;;5121147;27;20043;-65
2021/12/03 14:57:17;;;;;;;9.68;8.32;;;4.80;99.90;;;;;;5137856;27;20051;-65
2021/12/03 14:59:55;;;;;;;19.05;10.45;;;4.90;99.90;;;;;;5145368;27;20047;-66
2021/12/03 15:02:38;;;;;;;19.52;12.93;;;4.90;99.90;;;;;;5136617;27;20054;-65
2021/12/03 15:05:31;;;;;;;17.30;12.97;;;4.90;99.90;;;;;;5156382;27;20042;-65
2021/12/03 15:07:57;;;;;;;19.67;10.97;;;4.80;99.90;;;;;;5131650;27;20312;-65
2021/12/03 15:10:42;;;;;;;20.23;13.40;;;4.90;99.90;;;;;;5116485;27;20058;-65
2021/12/03 15:27:03;;;;;;;17.45;14.07;;;5.00;99.90;;;;;;5153574;27;20402;-65
2021/12/03 15:29:57;;;;;;;24.27;15.73;;;5.00;99.90;;;;;;5136591;27;20054;-65
2021/12/03 15:32:49;;;;;;;21.77;15.80;;;5.00;99.90;;;;;;5155699;27;20048;-65
2021/12/03 15:35:16;;;;;;;24.60;16.75;;;5.00;99.90;;;;;;5135306;27;20051;-65
2021/12/03 15:38:00;;;;;;;23.83;16.70;;;5.00;99.90;;;;;;5114272;28;20134;-65
2021/12/03 15:40:53;;;;;;;;;;;5.00;99.90;;;;;;5117146;27;20055;-65
2021/12/03 16:13:15;;;;;;;23.77;19.13;;;5.10;99.90;;;;;;5136018;27;20057;-64
2021/12/03 16:16:20;;;;;;;20.30;17.40;;;5.10;99.90;;;;;;5151466;27;20054;-65
2021/12/03 16:18:59;;;;;;;24.05;17.30;;;5.10;99.90;;;;;;5153717;27;20054;-64
2021/12/03 16:21:48;;;;;;;20.90;18.15;;;5.10;99.90;;;;;;5135844;27;20516;-65
2021/12/03 16:27:23;;;;;;;19.70;16.60;;;5.10;99.90;;;;;;5107291;27;20589;-64
2021/12/03 16:43:45;;;;;;;20.25;16.30;;;5.20;99.90;;;;;;5135958;27;20054;-64
2021/12/03 16:53:59;;;;;;;18.48;15.43;;;5.20;99.90;;;;;;5152729;27;20046;-65
2021/12/03 16:56:26;;;;;;;16.23;14.52;;;5.20;99.90;;;;;;5136114;27;20046;-65
2021/12/03 16:58:54;;;;;;;21.67;16.02;;;5.20;99.90;;;;;;5154270;27;20055;-65
2021/12/03 17:04:27;;;;;;;;;;;5.20;99.90;;;;;;5154544;27;20070;-65
2021/12/03 17:15:25;;;;;;;16.25;13.90;;;5.30;99.90;;;;;;5148587;27;20134;-65
2021/12/03 17:50:07;;;;;;;17.25;14.65;;;5.40;99.90;;;;;;5113350;27;20051;-66
2021/12/03 17:58:11;;;;;;;14.68;12.68;;;5.40;99.90;;;;;;5152909;27;20508;-66
2021/12/03 18:01:46;;;;;;;17.55;14.93;;;5.40;99.90;;;;;;5135243;27;20141;-66
2021/12/03 18:09:33;;;;;;;21.23;16.87;;;5.40;99.90;;;;;;5124126;27;20055;-66
2021/12/03 18:47:28;;;;;;;24.02;19.83;;;5.50;99.90;;;;;;5152040;27;20533;-66
2021/12/03 18:55:38;;;;;;;27.00;21.63;;;5.60;99.90;;;;;;5113468;27;20059;-66
2021/12/03 18:58:06;;;;;;;28.50;21.75;;;5.60;99.90;;;;;;5113911;27;20139;-66
2021/12/03 19:00:36;;;;;;;28.90;21.42;;;5.60;99.90;;;;;;5137998;27;20069;-66
2021/12/03 19:03:09;;;;;;;27.88;22.50;;;5.60;99.90;;;;;;5157076;27;20095;-66
2021/12/03 19:08:40;;;;;;;31.17;24.23;;;5.60;99.90;;;;;;5156233;27;20053;-66
2021/12/03 19:11:20;;;;;;;30.20;23.77;;;5.60;99.90;;;;;;5121048;27;20047;-66
2021/12/03 19:13:46;;;;;;;32.28;25.60;;;5.60;99.90;;;;;;5109021;27;20508;-66
2021/12/03 19:16:15;;;;;;;32.90;26.45;;;5.70;99.90;;;;;;5115534;27;20134;-66
2021/12/03 19:18:45;;;;;;;34.47;26.17;;;5.60;99.90;;;;;;5135842;27;20690;-66
2021/12/03 19:21:15;;;;;;;34.78;26.85;;;5.60;99.90;;;;;;5116322;27;20047;-66
2021/12/03 19:23:42;;;;;;;36.38;27.80;;;5.70;99.90;;;;;;5135564;27;20039;-66
2021/12/03 19:26:07;;;;;;;36.83;28.38;;;5.70;99.90;;;;;;5129168;27;20044;-66
2021/12/03 19:28:33;;;;;;;37.42;28.08;;;5.70;99.90;;;;;;5132886;27;20054;-66
2021/12/03 19:30:59;;;;;;;39.58;28.98;;;5.70;99.90;;;;;;5128317;27;20051;-66
2021/12/03 19:33:26;;;;;;;36.67;28.90;;;5.70;99.90;;;;;;5134680;27;20050;-66
2021/12/03 19:35:52;;;;;;;41.28;29.80;;;5.70;99.90;;;;;;5127797;27;20051;-66
2021/12/03 19:38:18;;;;;;;46.30;31.27;;;5.70;99.90;;;;;;5109267;27;20051;-66
2021/12/03 19:40:53;;;;;;;50.30;33.20;;;5.70;99.90;;;;;;5112603;28;20055;-66
2021/12/03 19:43:26;;;;;;;46.22;32.92;;;5.70;99.90;;;;;;5119387;27;20050;-66
2021/12/03 19:45:59;;;;;;;48.92;34.30;;;5.70;99.90;;;;;;5135158;27;20043;-66